Time;durP1;ratioP1;P1;durP2;ratioP2;P2;SDS_P1;SDS_P2;PMS_P1;PMS_P2;Temp;Humidity;BMP_temperature;BMP_pressure;BME280_temperature;BME280_humidity;BME280_pressure;Samples;Min_cycle;Max_cycle;Signal;HPM_P1;HPM_P2
2023/12/18 00:00:37;;;;;;;5.63;3.17;;;;;;;;;;5112714;28;20242;-88
2023/12/18 00:03:06;;;;;;;4.67;2.63;;;;;;;;;;5111923;28;20279;-87
2023/12/18 00:05:36;;;;;;;14.27;3.10;;;;;;;;;;5112438;28;20193;-87
2023/12/18 00:08:05;;;;;;;8.20;4.40;;;;;;;;;;5112653;28;20199;-84
2023/12/18 00:10:33;;;;;;;5.43;2.17;;;;;;;;;;5112578;28;20196;-84
2023/12/18 00:13:03;;;;;;;9.70;2.97;;;;;;;;;;5111904;28;20504;-84
2023/12/18 00:15:32;;;;;;;2.40;1.33;;;;;;;;;;5112170;28;20196;-84
2023/12/18 00:18:00;;;;;;;4.30;2.33;;;;;;;;;;5111794;28;20196;-84
2023/12/18 00:20:29;;;;;;;5.40;3.13;;;;;;;;;;5112285;28;20329;-85
2023/12/18 00:22:57;;;;;;;11.27;3.17;;;;;;;;;;5111988;28;20204;-84
2023/12/18 00:25:26;;;;;;;5.73;3.50;;;;;;;;;;5112418;28;20205;-88
2023/12/18 00:27:55;;;;;;;8.53;3.73;;;;;;;;;;5112609;28;20209;-86
2023/12/18 00:30:24;;;;;;;5.43;2.40;;;;;;;;;;5112796;28;20188;-85
2023/12/18 00:32:53;;;;;;;7.80;2.57;;;;;;;;;;5111975;28;20198;-86
2023/12/18 00:35:21;;;;;;;4.30;2.27;;;;;;;;;;5112068;28;20240;-86
2023/12/18 00:37:51;;;;;;;7.83;2.30;;;;;;;;;;5112320;28;20203;-86
2023/12/18 00:40:19;;;;;;;21.43;5.47;;;;;;;;;;5112665;28;20227;-86
2023/12/18 00:42:48;;;;;;;6.43;2.43;;;;;;;;;;5111851;28;20259;-85
2023/12/18 00:45:16;;;;;;;11.03;2.83;;;;;;;;;;5112130;28;20201;-86
2023/12/18 00:47:46;;;;;;;7.00;2.37;;;;;;;;;;5112632;28;20401;-86
2023/12/18 00:50:15;;;;;;;9.90;2.50;;;;;;;;;;5112720;28;20206;-86
2023/12/18 00:52:44;;;;;;;11.03;4.67;;;;;;;;;;5111858;28;20248;-87
2023/12/18 00:55:12;;;;;;;9.93;3.67;;;;;;;;;;5111500;28;20250;-86
2023/12/18 00:57:40;;;;;;;3.50;1.63;;;;;;;;;;5111877;28;20222;-86
2023/12/18 01:00:10;;;;;;;10.03;3.63;;;;;;;;;;5111933;28;20219;-86
2023/12/18 01:02:39;;;;;;;5.37;2.37;;;;;;;;;;5111903;28;20203;-85
2023/12/18 01:05:09;;;;;;;6.50;3.23;;;;;;;;;;5111537;28;20271;-87
2023/12/18 01:07:38;;;;;;;7.17;3.90;;;;;;;;;;5112483;28;20202;-87
2023/12/18 01:10:07;;;;;;;3.53;2.47;;;;;;;;;;5112105;28;20207;-87
2023/12/18 01:12:36;;;;;;;2.33;1.60;;;;;;;;;;5111533;28;20196;-87
2023/12/18 01:15:05;;;;;;;4.60;3.17;;;;;;;;;;5111491;28;20256;-87
2023/12/18 01:17:34;;;;;;;12.10;2.87;;;;;;;;;;5112114;28;20213;-87
2023/12/18 01:20:04;;;;;;;10.73;2.83;;;;;;;;;;5112386;28;20212;-87
2023/12/18 01:22:34;;;;;;;4.03;3.53;;;;;;;;;;5111761;28;20200;-86
2023/12/18 01:25:04;;;;;;;4.77;2.10;;;;;;;;;;5112064;28;20199;-86
2023/12/18 01:27:33;;;;;;;5.60;2.53;;;;;;;;;;5112064;28;20204;-87
2023/12/18 01:30:02;;;;;;;5.70;2.87;;;;;;;;;;5114718;28;20199;-87
2023/12/18 01:32:32;;;;;;;0.90;0.90;;;;;;;;;;5115819;27;20201;-87
2023/12/18 01:35:01;;;;;;;8.10;2.37;;;;;;;;;;5115322;28;20206;-87
2023/12/18 01:37:29;;;;;;;8.40;2.73;;;;;;;;;;5116056;28;20204;-87
2023/12/18 01:39:59;;;;;;;5.97;1.97;;;;;;;;;;5115947;28;20207;-86
2023/12/18 01:42:27;;;;;;;12.70;4.43;;;;;;;;;;5115082;28;20235;-86
2023/12/18 01:44:56;;;;;;;2.50;2.30;;;;;;;;;;5115027;28;20239;-87
2023/12/18 01:47:24;;;;;;;7.97;2.37;;;;;;;;;;5116185;28;20200;-87
2023/12/18 01:49:53;;;;;;;4.33;1.90;;;;;;;;;;5115712;28;20200;-87
2023/12/18 01:52:21;;;;;;;14.07;3.47;;;;;;;;;;5115453;28;20248;-86
2023/12/18 01:54:50;;;;;;;11.27;2.57;;;;;;;;;;5115049;28;20205;-87
2023/12/18 01:57:20;;;;;;;7.20;2.53;;;;;;;;;;5115266;28;20210;-87
2023/12/18 01:59:51;;;;;;;5.60;2.60;;;;;;;;;;5115271;28;20211;-87
2023/12/18 02:02:20;;;;;;;7.30;2.77;;;;;;;;;;5115035;28;20226;-87
2023/12/18 02:04:48;;;;;;;5.87;2.33;;;;;;;;;;5114704;28;20197;-87
2023/12/18 02:07:17;;;;;;;8.47;4.07;;;;;;;;;;5115043;28;20298;-87
2023/12/18 02:09:45;;;;;;;2.53;2.33;;;;;;;;;;5115647;28;20200;-87
2023/12/18 02:12:14;;;;;;;3.20;2.90;;;;;;;;;;5114984;28;20200;-87
2023/12/18 02:14:44;;;;;;;1.63;1.53;;;;;;;;;;5115036;28;20304;-87
2023/12/18 02:17:12;;;;;;;4.30;1.87;;;;;;;;;;5114733;28;20318;-87
2023/12/18 02:19:40;;;;;;;6.67;3.00;;;;;;;;;;5115075;28;20283;-87
2023/12/18 02:22:09;;;;;;;5.17;2.60;;;;;;;;;;5114957;28;20224;-87
2023/12/18 02:24:39;;;;;;;4.73;2.27;;;;;;;;;;5114763;28;20196;-87
2023/12/18 02:27:08;;;;;;;1.93;1.60;;;;;;;;;;5114838;28;20204;-86
2023/12/18 02:29:37;;;;;;;2.90;2.10;;;;;;;;;;5115033;28;20204;-87
2023/12/18 02:32:06;;;;;;;3.87;1.63;;;;;;;;;;5114684;28;20284;-87
2023/12/18 02:34:34;;;;;;;9.83;2.63;;;;;;;;;;5114391;28;20209;-87
2023/12/18 02:37:03;;;;;;;6.93;1.90;;;;;;;;;;5113974;28;20251;-87
2023/12/18 02:39:31;;;;;;;2.93;1.70;;;;;;;;;;5114826;28;20211;-87
2023/12/18 02:42:01;;;;;;;3.43;2.17;;;;;;;;;;5113624;28;20216;-87
2023/12/18 02:44:29;;;;;;;2.17;1.57;;;;;;;;;;5114096;28;20224;-87
2023/12/18 02:46:58;;;;;;;5.50;1.80;;;;;;;;;;5114358;28;20199;-87
2023/12/18 02:49:26;;;;;;;8.20;3.37;;;;;;;;;;5114517;28;20226;-87
2023/12/18 02:51:55;;;;;;;5.10;2.83;;;;;;;;;;5114743;28;20200;-87
2023/12/18 02:54:23;;;;;;;5.07;2.70;;;;;;;;;;5113846;28;20210;-87
2023/12/18 02:56:52;;;;;;;13.67;3.00;;;;;;;;;;5114004;28;20295;-87
2023/12/18 02:59:22;;;;;;;2.93;1.63;;;;;;;;;;5114831;28;20212;-87
2023/12/18 03:01:50;;;;;;;8.30;3.27;;;;;;;;;;5114096;28;20216;-87
2023/12/18 03:04:19;;;;;;;3.50;2.37;;;;;;;;;;5113751;28;20211;-87
2023/12/18 03:06:48;;;;;;;12.17;3.70;;;;;;;;;;5114020;28;20260;-86
2023/12/18 03:09:17;;;;;;;5.57;2.43;;;;;;;;;;5114262;28;20201;-87
2023/12/18 03:11:45;;;;;;;4.23;2.30;;;;;;;;;;5114069;28;20209;-87
2023/12/18 03:14:14;;;;;;;1.33;0.93;;;;;;;;;;5113793;28;20196;-87
2023/12/18 03:16:44;;;;;;;10.77;2.90;;;;;;;;;;5113642;28;20202;-87
2023/12/18 03:19:12;;;;;;;5.40;1.93;;;;;;;;;;5113870;28;20211;-87
2023/12/18 03:21:41;;;;;;;9.43;2.40;;;;;;;;;;5113930;28;20340;-86
2023/12/18 03:24:10;;;;;;;15.53;5.80;;;;;;;;;;5113435;28;20290;-87
2023/12/18 03:26:39;;;;;;;4.07;2.73;;;;;;;;;;5113224;28;20291;-87
2023/12/18 03:29:09;;;;;;;4.97;1.77;;;;;;;;;;5114066;28;20202;-86
2023/12/18 03:31:37;;;;;;;4.53;1.80;;;;;;;;;;5113727;28;20310;-86
2023/12/18 03:34:07;;;;;;;2.40;2.20;;;;;;;;;;5113588;28;20233;-87
2023/12/18 03:36:36;;;;;;;6.00;3.30;;;;;;;;;;5112978;28;20330;-87
2023/12/18 03:39:04;;;;;;;2.40;1.47;;;;;;;;;;5113728;28;20199;-86
2023/12/18 03:41:33;;;;;;;0.90;0.90;;;;;;;;;;5113902;28;20207;-87
2023/12/18 03:44:01;;;;;;;10.27;3.87;;;;;;;;;;5113095;28;20307;-87
2023/12/18 03:46:30;;;;;;;17.03;2.93;;;;;;;;;;5112823;28;20202;-86
2023/12/18 03:48:58;;;;;;;9.10;2.70;;;;;;;;;;5113354;28;20211;-87
2023/12/18 03:51:28;;;;;;;6.33;3.40;;;;;;;;;;5113285;28;20224;-87
2023/12/18 03:53:57;;;;;;;5.83;1.93;;;;;;;;;;5112307;28;20239;-84
2023/12/18 03:56:25;;;;;;;3.00;1.80;;;;;;;;;;5113118;28;20346;-84
2023/12/18 03:58:54;;;;;;;3.57;2.13;;;;;;;;;;5113199;28;20207;-84
2023/12/18 04:01:22;;;;;;;3.47;2.10;;;;;;;;;;5113162;28;20211;-84
2023/12/18 04:03:50;;;;;;;3.53;2.10;;;;;;;;;;5113245;28;20300;-84
2023/12/18 04:06:19;;;;;;;4.50;2.33;;;;;;;;;;5112612;28;20199;-84
2023/12/18 04:08:49;;;;;;;1.10;1.10;;;;;;;;;;5112960;28;20200;-84
2023/12/18 04:11:21;;;;;;;8.70;3.00;;;;;;;;;;5113272;28;20197;-84
2023/12/18 04:13:49;;;;;;;2.63;0.93;;;;;;;;;;5112992;28;20196;-84
2023/12/18 04:16:18;;;;;;;11.23;3.63;;;;;;;;;;5112682;28;20199;-84
2023/12/18 04:18:47;;;;;;;8.90;2.73;;;;;;;;;;5113129;28;20269;-83
2023/12/18 04:21:16;;;;;;;1.20;1.20;;;;;;;;;;5112760;28;20208;-84
2023/12/18 04:23:44;;;;;;;9.97;2.87;;;;;;;;;;5112653;28;20223;-84
2023/12/18 04:26:14;;;;;;;1.23;1.00;;;;;;;;;;5112579;28;20200;-84
2023/12/18 04:28:42;;;;;;;5.67;2.00;;;;;;;;;;5112852;28;20196;-84
2023/12/18 04:31:11;;;;;;;8.37;2.33;;;;;;;;;;5112669;28;20208;-84
2023/12/18 04:33:40;;;;;;;7.53;3.90;;;;;;;;;;5112736;28;20215;-84
2023/12/18 04:36:09;;;;;;;1.83;1.67;;;;;;;;;;5111901;28;20228;-85
2023/12/18 04:38:37;;;;;;;7.37;2.33;;;;;;;;;;5112344;28;20203;-84
2023/12/18 04:41:06;;;;;;;7.37;2.10;;;;;;;;;;5112667;28;20204;-84
2023/12/18 04:43:35;;;;;;;4.90;1.70;;;;;;;;;;5112696;28;20232;-84
2023/12/18 04:46:04;;;;;;;5.70;2.97;;;;;;;;;;5112196;28;20202;-84
2023/12/18 04:48:32;;;;;;;5.57;5.07;;;;;;;;;;5111903;28;20198;-84
2023/12/18 04:51:02;;;;;;;3.20;1.00;;;;;;;;;;5112633;28;20490;-84
2023/12/18 04:53:31;;;;;;;11.57;1.70;;;;;;;;;;5112587;28;20195;-84
2023/12/18 04:56:01;;;;;;;7.50;3.23;;;;;;;;;;5112475;28;20434;-84
2023/12/18 04:58:30;;;;;;;10.17;2.20;;;;;;;;;;5112015;28;20222;-84
2023/12/18 05:01:00;;;;;;;22.03;3.33;;;;;;;;;;5112245;28;20196;-84
2023/12/18 05:03:29;;;;;;;2.17;1.97;;;;;;;;;;5112325;28;20256;-84
2023/12/18 05:05:57;;;;;;;4.13;1.67;;;;;;;;;;5116290;28;20236;-84
2023/12/18 05:08:26;;;;;;;4.13;2.03;;;;;;;;;;5116238;28;20218;-83
2023/12/18 05:10:55;;;;;;;5.27;2.70;;;;;;;;;;5116436;28;20202;-83
2023/12/18 05:13:23;;;;;;;5.60;2.10;;;;;;;;;;5116671;28;20246;-84
2023/12/18 05:15:53;;;;;;;3.13;2.10;;;;;;;;;;5116098;28;20200;-84
2023/12/18 05:18:23;;;;;;;6.80;1.93;;;;;;;;;;5115945;28;20214;-84
2023/12/18 05:20:53;;;;;;;6.83;3.07;;;;;;;;;;5116119;28;20209;-84
2023/12/18 05:23:21;;;;;;;7.10;2.53;;;;;;;;;;5116330;28;20216;-84
2023/12/18 05:25:50;;;;;;;7.97;2.87;;;;;;;;;;5115835;28;20188;-83
2023/12/18 05:28:18;;;;;;;6.87;2.67;;;;;;;;;;5116029;28;20241;-83
2023/12/18 05:30:47;;;;;;;10.97;3.87;;;;;;;;;;5116126;28;20232;-86
2023/12/18 05:33:15;;;;;;;3.97;2.30;;;;;;;;;;5116835;28;20192;-86
2023/12/18 05:35:45;;;;;;;5.40;3.20;;;;;;;;;;5115774;28;20258;-83
2023/12/18 05:38:14;;;;;;;11.73;3.00;;;;;;;;;;5115682;28;20211;-83
2023/12/18 05:40:43;;;;;;;3.43;1.70;;;;;;;;;;5116075;28;20200;-84
2023/12/18 05:43:11;;;;;;;9.10;3.67;;;;;;;;;;5115710;28;20234;-84
2023/12/18 05:45:39;;;;;;;2.10;1.67;;;;;;;;;;5115800;28;20196;-83
2023/12/18 05:48:08;;;;;;;1.13;1.13;;;;;;;;;;5115521;28;20209;-83
2023/12/18 05:50:37;;;;;;;8.37;2.93;;;;;;;;;;5115682;28;20242;-84
2023/12/18 05:53:07;;;;;;;7.70;3.60;;;;;;;;;;5115784;28;20226;-84
2023/12/18 05:55:35;;;;;;;12.23;2.77;;;;;;;;;;5115409;28;20206;-84
2023/12/18 05:58:04;;;;;;;3.87;2.27;;;;;;;;;;5114948;28;20199;-83
2023/12/18 06:00:32;;;;;;;8.47;3.47;;;;;;;;;;5115327;28;20289;-87
2023/12/18 06:03:01;;;;;;;6.17;2.40;;;;;;;;;;5115285;28;20220;-87
2023/12/18 06:05:29;;;;;;;8.10;2.40;;;;;;;;;;5115657;28;20200;-87
2023/12/18 06:07:58;;;;;;;7.73;2.90;;;;;;;;;;5114824;28;20229;-86
2023/12/18 06:10:27;;;;;;;2.47;2.27;;;;;;;;;;5114885;28;20200;-86
2023/12/18 06:12:56;;;;;;;8.93;3.23;;;;;;;;;;5115335;28;20206;-87
2023/12/18 06:15:25;;;;;;;15.40;6.33;;;;;;;;;;5114179;28;20294;-86
2023/12/18 06:17:53;;;;;;;6.17;4.60;;;;;;;;;;5114302;28;20218;-86
2023/12/18 06:20:22;;;;;;;12.00;3.47;;;;;;;;;;5114602;28;20195;-85
2023/12/18 06:22:50;;;;;;;5.50;2.27;;;;;;;;;;5114794;28;20227;-86
2023/12/18 06:25:19;;;;;;;13.73;3.70;;;;;;;;;;5114580;28;20259;-86
2023/12/18 06:27:49;;;;;;;11.17;3.60;;;;;;;;;;5114139;28;20212;-86
2023/12/18 06:30:18;;;;;;;2.37;1.27;;;;;;;;;;5114818;28;20192;-87
2023/12/18 06:32:46;;;;;;;10.43;4.07;;;;;;;;;;5115099;28;20207;-86
2023/12/18 06:35:15;;;;;;;11.17;3.83;;;;;;;;;;5114345;28;20192;-86
2023/12/18 06:37:44;;;;;;;4.47;3.00;;;;;;;;;;5114390;28;20209;-85
2023/12/18 06:40:13;;;;;;;5.33;2.23;;;;;;;;;;5114739;28;20198;-85
2023/12/18 06:42:42;;;;;;;7.50;2.70;;;;;;;;;;5114938;28;20199;-85
2023/12/18 06:45:12;;;;;;;6.83;2.33;;;;;;;;;;5115029;28;20222;-86
2023/12/18 06:47:41;;;;;;;4.90;3.20;;;;;;;;;;5114115;28;20194;-86
2023/12/18 06:50:09;;;;;;;10.10;2.73;;;;;;;;;;5114467;28;20270;-86
2023/12/18 06:52:39;;;;;;;7.93;2.97;;;;;;;;;;5114827;28;20206;-86
2023/12/18 06:55:08;;;;;;;8.60;4.47;;;;;;;;;;5115702;28;20209;-82
2023/12/18 06:57:37;;;;;;;12.57;3.30;;;;;;;;;;5114625;28;20196;-85
2023/12/18 07:00:06;;;;;;;7.30;3.30;;;;;;;;;;5114282;28;20245;-86
2023/12/18 07:02:36;;;;;;;10.40;3.50;;;;;;;;;;5114308;28;20308;-86
2023/12/18 07:05:05;;;;;;;12.03;4.00;;;;;;;;;;5115038;28;20216;-86
2023/12/18 07:07:34;;;;;;;7.13;2.40;;;;;;;;;;5113917;28;20199;-86
2023/12/18 07:10:03;;;;;;;13.40;5.63;;;;;;;;;;5113570;28;20207;-86
2023/12/18 07:12:32;;;;;;;7.60;2.93;;;;;;;;;;5113766;28;20202;-86
2023/12/18 07:15:01;;;;;;;3.77;1.77;;;;;;;;;;5114126;28;20209;-86
2023/12/18 07:17:29;;;;;;;10.87;2.93;;;;;;;;;;5114108;28;20290;-86
2023/12/18 07:20:00;;;;;;;8.27;2.17;;;;;;;;;;5113808;28;20259;-86
2023/12/18 07:22:28;;;;;;;5.40;2.17;;;;;;;;;;5113690;28;20203;-86
2023/12/18 07:24:57;;;;;;;3.53;2.77;;;;;;;;;;5113860;28;20212;-84
2023/12/18 07:27:26;;;;;;;1.47;1.17;;;;;;;;;;5113306;28;20214;-86
2023/12/18 07:29:55;;;;;;;7.73;3.93;;;;;;;;;;5113379;28;20406;-86
2023/12/18 07:32:23;;;;;;;9.63;3.23;;;;;;;;;;5113285;28;20201;-86
2023/12/18 07:34:52;;;;;;;9.43;1.50;;;;;;;;;;5113970;28;20287;-86
2023/12/18 07:37:22;;;;;;;13.43;3.67;;;;;;;;;;5113043;28;20293;-87
2023/12/18 07:39:51;;;;;;;7.97;3.03;;;;;;;;;;5112871;28;20249;-86
2023/12/18 07:42:20;;;;;;;5.87;2.60;;;;;;;;;;5113176;28;20302;-86
2023/12/18 07:44:49;;;;;;;8.03;2.80;;;;;;;;;;5113571;28;20220;-87
2023/12/18 07:47:17;;;;;;;6.77;2.93;;;;;;;;;;5113448;28;20210;-87
2023/12/18 07:49:46;;;;;;;3.80;2.43;;;;;;;;;;5112860;28;20292;-87
2023/12/18 07:52:18;;;;;;;8.43;3.33;;;;;;;;;;5113034;28;20211;-86
2023/12/18 07:54:48;;;;;;;6.77;2.93;;;;;;;;;;5113564;28;20200;-87
2023/12/18 07:57:16;;;;;;;8.03;2.77;;;;;;;;;;5112963;28;20238;-86
2023/12/18 07:59:45;;;;;;;3.73;2.57;;;;;;;;;;5112749;28;20245;-87
2023/12/18 08:02:16;;;;;;;5.93;3.23;;;;;;;;;;5113016;28;20234;-87
2023/12/18 08:04:44;;;;;;;5.97;2.57;;;;;;;;;;5112974;28;20208;-86
2023/12/18 08:07:13;;;;;;;2.23;1.80;;;;;;;;;;5112922;28;20203;-86
2023/12/18 08:09:42;;;;;;;13.17;4.93;;;;;;;;;;5113317;28;20290;-86
2023/12/18 08:12:12;;;;;;;13.83;3.03;;;;;;;;;;5112412;28;20207;-86
2023/12/18 08:14:44;;;;;;;2.73;2.53;;;;;;;;;;5114135;28;20211;-87
2023/12/18 08:17:15;;;;;;;4.27;1.90;;;;;;;;;;5113571;28;20214;-86
2023/12/18 08:19:47;;;;;;;8.33;3.03;;;;;;;;;;5112596;28;20200;-86
2023/12/18 08:22:15;;;;;;;3.00;2.10;;;;;;;;;;5112986;28;20217;-86
2023/12/18 08:24:52;;;;;;;8.63;2.77;;;;;;;;;;5113095;28;20313;-87
2023/12/18 08:27:22;;;;;;;12.47;3.97;;;;;;;;;;5112199;28;20213;-87
2023/12/18 08:29:51;;;;;;;9.40;3.80;;;;;;;;;;5112209;28;20207;-87
2023/12/18 08:32:20;;;;;;;10.30;1.97;;;;;;;;;;5112531;28;20198;-87
2023/12/18 08:35:00;;;;;;;13.17;4.43;;;;;;;;;;5112810;28;20228;-87
2023/12/18 08:37:29;;;;;;;14.33;5.00;;;;;;;;;;5112503;28;20250;-87
2023/12/18 08:39:58;;;;;;;9.43;3.23;;;;;;;;;;5112074;28;20199;-87
2023/12/18 08:42:28;;;;;;;8.17;4.17;;;;;;;;;;5112334;28;20249;-87
2023/12/18 08:44:59;;;;;;;6.17;3.87;;;;;;;;;;5112420;28;20219;-87
2023/12/18 08:47:28;;;;;;;12.30;2.97;;;;;;;;;;5113563;28;20192;-87
2023/12/18 08:49:59;;;;;;;12.60;3.97;;;;;;;;;;5113120;28;20203;-87
2023/12/18 08:52:31;;;;;;;10.57;6.03;;;;;;;;;;5111914;28;20192;-88
2023/12/18 08:55:00;;;;;;;15.63;5.17;;;;;;;;;;5112621;28;20241;-86
2023/12/18 08:57:30;;;;;;;5.63;2.93;;;;;;;;;;5112733;28;20207;-88
2023/12/18 08:59:59;;;;;;;8.90;3.80;;;;;;;;;;5113134;28;20207;-87
2023/12/18 09:02:28;;;;;;;7.20;3.37;;;;;;;;;;5112193;28;20199;-87
2023/12/18 09:04:57;;;;;;;11.40;4.77;;;;;;;;;;5112678;28;20219;-87
2023/12/18 09:07:29;;;;;;;5.07;3.93;;;;;;;;;;5112582;28;20286;-86
2023/12/18 09:09:58;;;;;;;16.27;6.00;;;;;;;;;;5111775;28;20231;-86
2023/12/18 09:12:26;;;;;;;5.50;2.93;;;;;;;;;;5111904;28;20207;-86
2023/12/18 09:14:57;;;;;;;8.00;4.03;;;;;;;;;;5112487;28;20202;-86
2023/12/18 09:17:26;;;;;;;17.93;8.17;;;;;;;;;;5112689;28;20245;-87
2023/12/18 09:19:55;;;;;;;17.53;7.57;;;;;;;;;;5111689;28;20464;-87
2023/12/18 09:22:24;;;;;;;7.00;4.30;;;;;;;;;;5112042;28;20213;-86
2023/12/18 09:24:53;;;;;;;9.23;5.10;;;;;;;;;;5112433;28;20211;-86
2023/12/18 09:27:22;;;;;;;4.17;3.67;;;;;;;;;;5112622;28;20208;-86
2023/12/18 09:29:51;;;;;;;8.70;4.20;;;;;;;;;;5111931;28;20216;-86
2023/12/18 09:32:23;;;;;;;6.17;2.80;;;;;;;;;;5112240;28;20206;-86
2023/12/18 09:34:52;;;;;;;23.13;7.23;;;;;;;;;;5112881;28;20238;-85
2023/12/18 09:37:25;;;;;;;9.17;4.23;;;;;;;;;;5112270;28;20299;-85
2023/12/18 09:39:53;;;;;;;6.57;4.03;;;;;;;;;;5112231;28;20202;-86
2023/12/18 09:42:22;;;;;;;5.17;3.60;;;;;;;;;;5111551;28;20297;-87
2023/12/18 09:44:51;;;;;;;5.77;3.77;;;;;;;;;;5112730;28;20227;-87
2023/12/18 09:47:23;;;;;;;5.87;4.40;;;;;;;;;;5112299;28;20299;-87
2023/12/18 09:49:56;;;;;;;8.80;4.60;;;;;;;;;;5111754;28;20200;-85
2023/12/18 09:52:26;;;;;;;12.50;6.17;;;;;;;;;;5115834;28;20197;-87
2023/12/18 09:54:59;;;;;;;15.03;7.10;;;;;;;;;;5115917;28;20200;-87
2023/12/18 09:57:28;;;;;;;8.00;6.03;;;;;;;;;;5115835;28;20199;-87
2023/12/18 09:59:56;;;;;;;13.73;8.10;;;;;;;;;;5115748;28;20265;-87
2023/12/18 10:02:32;;;;;;;14.20;4.77;;;;;;;;;;5115548;28;20222;-87
2023/12/18 10:05:08;;;;;;;7.23;4.33;;;;;;;;;;5115539;28;20257;-87
2023/12/18 10:07:40;;;;;;;12.17;8.30;;;;;;;;;;5115823;28;20242;-87
2023/12/18 10:10:11;;;;;;;16.07;7.53;;;;;;;;;;5114957;28;20276;-88
2023/12/18 10:12:40;;;;;;;15.93;5.13;;;;;;;;;;5114980;28;20207;-87
2023/12/18 10:15:11;;;;;;;11.40;8.33;;;;;;;;;;5114999;28;20202;-87
2023/12/18 10:17:44;;;;;;;9.43;6.27;;;;;;;;;;5115550;28;20212;-87
2023/12/18 10:20:15;;;;;;;8.10;6.30;;;;;;;;;;5115661;28;20249;-86
2023/12/18 10:22:44;;;;;;;15.77;5.17;;;;;;;;;;5114698;28;20200;-86
2023/12/18 10:25:13;;;;;;;6.90;5.40;;;;;;;;;;5115519;28;20294;-86
2023/12/18 10:27:42;;;;;;;12.73;5.93;;;;;;;;;;5115173;28;20206;-86
2023/12/18 10:30:12;;;;;;;17.37;10.83;;;;;;;;;;5114661;28;20193;-87
2023/12/18 10:32:45;;;;;;;6.37;5.13;;;;;;;;;;5114555;28;20196;-87
2023/12/18 10:35:15;;;;;;;13.77;9.23;;;;;;;;;;5115076;28;20190;-86
2023/12/18 10:37:48;;;;;;;9.17;6.43;;;;;;;;;;5114752;28;20231;-86
2023/12/18 10:40:22;;;;;;;13.90;3.10;;;;;;;;;;5114731;28;20198;-85
2023/12/18 10:42:56;;;;;;;19.27;10.13;;;;;;;;;;5114253;28;20190;-86
2023/12/18 10:45:25;;;;;;;5.60;4.57;;;;;;;;;;5115082;28;20209;-86
2023/12/18 10:47:56;;;;;;;10.00;8.17;;;;;;;;;;5115311;28;20196;-86
2023/12/18 10:50:25;;;;;;;5.60;5.10;;;;;;;;;;5114162;28;20314;-86
2023/12/18 10:52:56;;;;;;;13.03;6.40;;;;;;;;;;5115087;28;20204;-87
2023/12/18 10:55:27;;;;;;;8.20;3.77;;;;;;;;;;5114965;28;20210;-87
2023/12/18 10:58:02;;;;;;;9.43;5.87;;;;;;;;;;5114905;28;20226;-87
2023/12/18 11:00:33;;;;;;;13.30;7.57;;;;;;;;;;5114492;28;20206;-86
2023/12/18 11:03:06;;;;;;;6.63;5.43;;;;;;;;;;5113219;28;20240;-86
2023/12/18 11:05:43;;;;;;;4.70;4.30;;;;;;;;;;5114229;28;20211;-87
2023/12/18 11:08:12;;;;;;;11.53;7.67;;;;;;;;;;5114247;28;20199;-87
2023/12/18 11:10:42;;;;;;;17.10;8.57;;;;;;;;;;5113834;28;20195;-87
2023/12/18 11:13:16;;;;;;;9.73;4.80;;;;;;;;;;5113390;28;20196;-87
2023/12/18 11:15:49;;;;;;;14.47;10.47;;;;;;;;;;5114361;28;20240;-86
2023/12/18 11:18:27;;;;;;;8.63;5.03;;;;;;;;;;5114609;28;20203;-87
2023/12/18 11:20:58;;;;;;;10.30;5.70;;;;;;;;;;5113590;28;20210;-87
2023/12/18 11:23:34;;;;;;;11.97;9.27;;;;;;;;;;5113512;28;20206;-87
2023/12/18 11:26:05;;;;;;;9.33;6.13;;;;;;;;;;5113834;28;20307;-86
2023/12/18 11:28:35;;;;;;;10.10;6.70;;;;;;;;;;5114338;28;20231;-86
2023/12/18 11:31:06;;;;;;;21.87;10.87;;;;;;;;;;5113357;28;20196;-87
2023/12/18 11:33:36;;;;;;;7.00;3.40;;;;;;;;;;5113669;28;20249;-87
2023/12/18 11:36:17;;;;;;;15.73;10.53;;;;;;;;;;5113483;28;20424;-87
2023/12/18 11:38:45;;;;;;;15.43;11.10;;;;;;;;;;5113402;28;20214;-87
2023/12/18 11:41:29;;;;;;;21.97;12.83;;;;;;;;;;5113283;28;20199;-87
2023/12/18 11:43:58;;;;;;;21.90;11.50;;;;;;;;;;5113263;28;20219;-87
2023/12/18 11:46:27;;;;;;;16.53;7.83;;;;;;;;;;5113077;28;20242;-86
2023/12/18 11:48:56;;;;;;;13.60;8.77;;;;;;;;;;5113499;28;20203;-85
2023/12/18 11:51:25;;;;;;;10.70;8.60;;;;;;;;;;5112997;28;20215;-85
2023/12/18 11:53:59;;;;;;;13.30;8.10;;;;;;;;;;5112969;28;20222;-86
2023/12/18 11:56:28;;;;;;;15.03;9.50;;;;;;;;;;5113274;28;20238;-85
2023/12/18 11:58:57;;;;;;;13.10;6.60;;;;;;;;;;5113287;28;20203;-86
2023/12/18 12:01:27;;;;;;;6.27;5.77;;;;;;;;;;5112661;28;20200;-86
2023/12/18 12:03:59;;;;;;;22.83;15.43;;;;;;;;;;5113666;28;20204;-86
2023/12/18 12:06:29;;;;;;;8.57;6.97;;;;;;;;;;5113746;28;20219;-86
2023/12/18 12:08:58;;;;;;;13.33;8.30;;;;;;;;;;5113319;28;20195;-86
2023/12/18 12:11:26;;;;;;;11.77;7.57;;;;;;;;;;5112003;28;20283;-86
2023/12/18 12:13:55;;;;;;;19.47;9.37;;;;;;;;;;5112139;28;20199;-85
2023/12/18 12:16:25;;;;;;;14.67;7.10;;;;;;;;;;5112906;28;20192;-85
2023/12/18 12:18:55;;;;;;;12.83;7.33;;;;;;;;;;5112975;28;20262;-86
2023/12/18 12:21:25;;;;;;;11.23;8.10;;;;;;;;;;5112658;28;20242;-85
2023/12/18 12:24:09;;;;;;;7.07;4.80;;;;;;;;;;5096811;28;20204;-85
2023/12/18 12:26:38;;;;;;;12.53;9.70;;;;;;;;;;5117202;27;20216;-85
2023/12/18 12:29:09;;;;;;;11.70;7.93;;;;;;;;;;5101538;28;20200;-85
2023/12/18 12:31:38;;;;;;;17.33;9.27;;;;;;;;;;5108428;28;20259;-86
2023/12/18 12:34:14;;;;;;;11.67;7.60;;;;;;;;;;5101004;28;20300;-85
2023/12/18 12:36:46;;;;;;;17.67;9.50;;;;;;;;;;5097875;28;20254;-86
2023/12/18 12:39:15;;;;;;;16.97;10.73;;;;;;;;;;5093088;28;20276;-86
2023/12/18 12:41:45;;;;;;;7.60;5.37;;;;;;;;;;5092102;28;20226;-86
2023/12/18 12:44:17;;;;;;;13.37;8.37;;;;;;;;;;5093472;28;20231;-86
2023/12/18 12:46:45;;;;;;;17.90;12.37;;;;;;;;;;5094220;28;20249;-86
2023/12/18 12:49:14;;;;;;;22.93;8.17;;;;;;;;;;5093807;28;20205;-86
2023/12/18 12:51:43;;;;;;;20.67;10.30;;;;;;;;;;5088241;28;20352;-86
2023/12/18 12:54:13;;;;;;;13.23;8.67;;;;;;;;;;5097408;28;20212;-86
2023/12/18 12:56:45;;;;;;;15.17;7.80;;;;;;;;;;5090134;28;20212;-86
2023/12/18 12:59:16;;;;;;;20.93;11.20;;;;;;;;;;5088782;28;20331;-87
2023/12/18 13:01:44;;;;;;;9.10;5.03;;;;;;;;;;5090114;28;20230;-86
2023/12/18 13:04:13;;;;;;;16.77;10.80;;;;;;;;;;5090687;28;20244;-87
2023/12/18 13:06:42;;;;;;;10.27;4.83;;;;;;;;;;5096732;28;20285;-87
2023/12/18 13:09:11;;;;;;;18.00;9.93;;;;;;;;;;5093598;28;20231;-86
2023/12/18 13:11:41;;;;;;;11.97;6.47;;;;;;;;;;5103026;28;20214;-87
2023/12/18 13:14:10;;;;;;;13.93;9.80;;;;;;;;;;5106209;28;20204;-86
2023/12/18 13:16:44;;;;;;;19.97;14.70;;;;;;;;;;5095133;28;20211;-86
2023/12/18 13:19:13;;;;;;;13.93;5.53;;;;;;;;;;5091358;28;20438;-84
2023/12/18 13:21:43;;;;;;;11.70;8.97;;;;;;;;;;5089511;28;20428;-86
2023/12/18 13:24:12;;;;;;;13.97;9.03;;;;;;;;;;5096382;28;20577;-84
2023/12/18 13:26:45;;;;;;;10.70;7.97;;;;;;;;;;5104310;28;20208;-85
2023/12/18 13:29:14;;;;;;;16.47;9.60;;;;;;;;;;5098912;28;20236;-85
2023/12/18 13:31:47;;;;;;;19.00;10.67;;;;;;;;;;5093877;28;20292;-85
2023/12/18 13:34:16;;;;;;;23.93;8.60;;;;;;;;;;5095274;28;20195;-86
2023/12/18 13:36:45;;;;;;;23.60;13.30;;;;;;;;;;5094860;28;20245;-85
2023/12/18 13:39:14;;;;;;;13.30;7.83;;;;;;;;;;5096847;28;20201;-87
2023/12/18 13:41:44;;;;;;;17.83;7.80;;;;;;;;;;5093779;28;20300;-85
2023/12/18 13:44:13;;;;;;;13.53;8.00;;;;;;;;;;5096263;28;20223;-85
2023/12/18 13:46:45;;;;;;;7.97;4.53;;;;;;;;;;5097254;28;20205;-85
2023/12/18 13:49:14;;;;;;;17.17;7.03;;;;;;;;;;5098345;28;20234;-87
2023/12/18 13:51:43;;;;;;;12.97;4.83;;;;;;;;;;5100155;28;20198;-85
2023/12/18 13:54:15;;;;;;;10.20;6.93;;;;;;;;;;5097566;28;20211;-86
2023/12/18 13:56:46;;;;;;;16.57;7.40;;;;;;;;;;5094761;28;20211;-85
2023/12/18 13:59:19;;;;;;;11.97;5.73;;;;;;;;;;5094020;28;20249;-85
2023/12/18 14:01:50;;;;;;;3.87;3.50;;;;;;;;;;5093759;28;20333;-86
2023/12/18 14:04:21;;;;;;;10.87;5.50;;;;;;;;;;5094197;28;20196;-86
2023/12/18 14:06:50;;;;;;;11.13;5.80;;;;;;;;;;5094394;28;20273;-87
2023/12/18 14:09:19;;;;;;;8.83;5.47;;;;;;;;;;5094343;28;20229;-87
2023/12/18 14:11:55;;;;;;;8.10;5.10;;;;;;;;;;5094656;28;20250;-86
2023/12/18 14:14:24;;;;;;;20.80;11.03;;;;;;;;;;5093902;28;20254;-87
2023/12/18 14:16:53;;;;;;;9.63;6.10;;;;;;;;;;5094546;28;20257;-86
2023/12/18 14:19:25;;;;;;;14.53;10.83;;;;;;;;;;5094414;28;20191;-86
2023/12/18 14:21:56;;;;;;;12.93;7.53;;;;;;;;;;5094332;28;20214;-87
2023/12/18 14:24:26;;;;;;;14.83;7.60;;;;;;;;;;5093679;28;20265;-86
2023/12/18 14:26:59;;;;;;;21.40;10.50;;;;;;;;;;5093501;28;20203;-87
2023/12/18 14:29:28;;;;;;;17.30;10.37;;;;;;;;;;5094218;28;20239;-86
2023/12/18 14:32:00;;;;;;;5.83;3.87;;;;;;;;;;5094449;28;20200;-86
2023/12/18 14:34:29;;;;;;;17.33;8.07;;;;;;;;;;5093525;28;20256;-86
2023/12/18 14:37:00;;;;;;;8.43;6.37;;;;;;;;;;5092731;28;20231;-86
2023/12/18 14:39:30;;;;;;;16.13;10.60;;;;;;;;;;5094297;28;20204;-87
2023/12/18 14:42:03;;;;;;;28.03;15.53;;;;;;;;;;5094347;28;20288;-86
2023/12/18 14:44:34;;;;;;;11.17;6.20;;;;;;;;;;5093510;28;20216;-87
2023/12/18 14:47:06;;;;;;;16.30;7.13;;;;;;;;;;5094278;28;20208;-87
2023/12/18 14:49:35;;;;;;;18.37;8.10;;;;;;;;;;5094122;28;20311;-86